createdAt,value
2022-07-27T00:02:35.761Z,100169.28
2022-07-27T00:07:38.135Z,100176.91
2022-07-27T00:12:38.826Z,100182.81
2022-07-27T00:17:39.524Z,100175.38
2022-07-27T00:22:41.803Z,100181.88
2022-07-27T00:27:42.401Z,100196.16
2022-07-27T00:32:43.049Z,100189.69
2022-07-27T00:37:44.968Z,100190.66
2022-07-27T00:42:45.824Z,100187.88
2022-07-27T00:47:46.416Z,100207.28
2022-07-27T00:52:49.514Z,100201.03
2022-07-27T00:57:58.838Z,100206.22
2022-07-27T01:03:02.521Z,100197.75
2022-07-27T01:08:12.472Z,100195.94
2022-07-27T01:13:13.649Z,100204.38
2022-07-27T01:18:27.487Z,100202.56
2022-07-27T01:23:32.496Z,100195.34
2022-07-27T01:28:33.180Z,100198.31
2022-07-27T01:33:33.778Z,100200.72
2022-07-27T01:38:35.685Z,100203.44
2022-07-27T01:43:36.341Z,100207.50
2022-07-27T01:48:36.999Z,100219.31
2022-07-27T01:53:39.038Z,100208.88
2022-07-27T01:58:41.105Z,100203.44
2022-07-27T02:03:41.690Z,100203.75
2022-07-27T02:08:43.820Z,100207.84
2022-07-27T02:13:44.912Z,100214.53
2022-07-27T02:18:45.990Z,100212.41
2022-07-27T02:23:51.067Z,100201.50
2022-07-27T02:28:51.990Z,100201.34
2022-07-27T02:33:52.617Z,100207.78
2022-07-27T02:38:54.586Z,100210.75
2022-07-27T02:43:55.220Z,100211.78
2022-07-27T02:48:55.949Z,100212.31
2022-07-27T02:53:57.896Z,100209.72
2022-07-27T02:58:58.516Z,100210.91
2022-07-27T03:03:59.213Z,100208.88
2022-07-27T03:09:01.207Z,100216.97
2022-07-27T03:14:01.828Z,100210.19
2022-07-27T03:19:02.686Z,100204.28
2022-07-27T03:24:04.895Z,100210.91
2022-07-27T03:29:05.502Z,100220.94
2022-07-27T03:34:06.255Z,100210.78
2022-07-27T03:39:09.164Z,100213.22
2022-07-27T03:44:09.955Z,100216.66
2022-07-27T03:49:13.797Z,100202.97
2022-07-27T03:54:17.815Z,100212.97
2022-07-27T03:59:18.422Z,100219.75
2022-07-27T04:04:19.046Z,100227.13
2022-07-27T04:09:21.015Z,100232.09
2022-07-27T04:14:21.854Z,100232.72
2022-07-27T04:19:22.512Z,100242.59
2022-07-27T04:24:24.476Z,100247.38
2022-07-27T04:29:25.168Z,100241.91
2022-07-27T04:34:25.993Z,100255.94
2022-07-27T04:39:27.898Z,100255.06
2022-07-27T04:44:28.507Z,100266.19
2022-07-27T04:49:29.290Z,100267.72
2022-07-27T04:54:31.241Z,100264.19
2022-07-27T04:59:31.891Z,100269.91
2022-07-27T05:04:32.612Z,100277.75
2022-07-27T05:09:34.577Z,100277.53
2022-07-27T05:14:35.185Z,100280.66
2022-07-27T05:19:40.252Z,100296.09
2022-07-27T05:24:42.882Z,100295.53
2022-07-27T05:29:43.551Z,100299.44
2022-07-27T05:34:46.054Z,100310.56
2022-07-27T05:39:48.353Z,100307.59
2022-07-27T05:44:49.036Z,100322.25
2022-07-27T05:49:49.681Z,100316.13
2022-07-27T05:54:52.868Z,100311.34
2022-07-27T05:59:55.071Z,100313.34
2022-07-27T06:04:55.746Z,100318.09
2022-07-27T06:09:58.771Z,100325.53
2022-07-27T06:14:59.413Z,100331.97
2022-07-27T06:20:00.551Z,100342.56
2022-07-27T06:25:02.546Z,100362.31
2022-07-27T06:30:03.322Z,100369.53
2022-07-27T06:35:04.777Z,100361.25
2022-07-27T06:40:08.994Z,100372.31
2022-07-27T06:45:11.037Z,100383.66
2022-07-27T06:50:12.894Z,100371.09
2022-07-27T06:55:14.950Z,100364.00
2022-07-27T07:00:16.272Z,100370.91
2022-07-27T07:05:16.870Z,100362.84
2022-07-27T07:10:18.934Z,100361.59
2022-07-27T07:15:22.906Z,100372.31
2022-07-27T07:20:24.017Z,100367.59
2022-07-27T07:25:26.386Z,100371.06
2022-07-27T07:30:27.998Z,100363.09
2022-07-27T07:35:29.158Z,100368.75
2022-07-27T07:40:46.739Z,100373.09
2022-07-27T07:45:50.148Z,100380.03
2022-07-27T07:50:53.988Z,100381.06
2022-07-27T07:55:56.760Z,100377.41
2022-07-27T08:00:57.455Z,100378.59
2022-07-27T08:05:58.169Z,100378.22
2022-07-27T08:11:00.115Z,100382.75
2022-07-27T08:16:00.894Z,100394.84
2022-07-27T08:21:01.594Z,100391.69
2022-07-27T08:26:07.727Z,100391.19
2022-07-27T08:31:15.281Z,100400.09
2022-07-27T08:36:19.769Z,100395.56
2022-07-27T08:41:26.017Z,100397.50
2022-07-27T08:46:28.463Z,100394.94
2022-07-27T08:51:29.937Z,100399.59
2022-07-27T08:56:32.009Z,100400.34
2022-07-27T09:01:33.095Z,100396.72
2022-07-27T09:06:45.205Z,100394.03
2022-07-27T09:12:07.947Z,100389.53
2022-07-27T09:22:46.839Z,100405.47
2022-07-27T09:27:49.737Z,100403.78
2022-07-27T09:32:54.670Z,100395.03
2022-07-27T09:37:55.339Z,100408.75
2022-07-27T09:44:12.198Z,100403.38
2022-07-27T09:48:36.769Z,100406.38
2022-07-27T09:53:43.229Z,100402.19
2022-07-27T09:58:50.937Z,100397.69
2022-07-27T10:03:53.678Z,100394.56
2022-07-27T10:08:56.772Z,100384.09
2022-07-27T10:14:00.193Z,100400.06
2022-07-27T10:19:09.745Z,100396.47
2022-07-27T10:24:13.883Z,100390.91
2022-07-27T10:29:20.300Z,100399.72
2022-07-27T10:34:35.100Z,100402.63
2022-07-27T10:39:38.810Z,100406.09
2022-07-27T10:44:53.114Z,100403.13
2022-07-27T10:50:22.086Z,100403.88
2022-07-27T10:55:42.849Z,100405.41
2022-07-27T11:01:03.085Z,100399.66
2022-07-27T11:06:31.311Z,100391.81
2022-07-27T11:11:28.329Z,100384.03
2022-07-27T11:16:31.326Z,100384.16
2022-07-27T11:21:36.072Z,100377.22
2022-07-27T11:26:41.299Z,100379.59
2022-07-27T11:31:59.337Z,100382.72
2022-07-27T11:37:03.117Z,100385.75
2022-07-27T11:42:09.055Z,100386.06
2022-07-27T11:47:17.418Z,100387.34
2022-07-27T11:52:19.696Z,100367.50
2022-07-27T11:57:21.197Z,100370.63
2022-07-27T12:02:22.261Z,100367.25
2022-07-27T12:07:31.257Z,100365.25
2022-07-27T12:12:33.662Z,100359.66
2022-07-27T12:17:35.138Z,100348.41
2022-07-27T12:22:39.682Z,100354.16
2022-07-27T12:27:40.382Z,100354.44
2022-07-27T12:32:43.721Z,100342.38
2022-07-27T12:37:45.901Z,100334.78
2022-07-27T12:42:46.834Z,100331.16
2022-07-27T12:47:47.548Z,100318.47
2022-07-27T12:52:52.223Z,100327.66
2022-07-27T12:57:56.546Z,100310.19
2022-07-27T13:02:58.609Z,100313.66
2022-07-27T13:08:00.989Z,100306.97
2022-07-27T13:13:01.833Z,100310.91
2022-07-27T13:18:02.711Z,100309.91
2022-07-27T13:23:08.348Z,100311.44
2022-07-27T13:28:09.026Z,100312.22
2022-07-27T13:33:09.951Z,100312.88
2022-07-27T13:38:16.277Z,100314.84
2022-07-27T13:43:20.346Z,100321.44
2022-07-27T13:48:20.990Z,100311.84
2022-07-27T13:53:23.100Z,100312.03
2022-07-27T13:58:23.825Z,100307.53
2022-07-27T14:03:24.474Z,100317.09
2022-07-27T14:08:28.443Z,100322.00
2022-07-27T14:13:32.644Z,100317.03
2022-07-27T14:18:33.444Z,100318.84
2022-07-27T14:23:36.753Z,100306.16
2022-07-27T14:28:38.821Z,100313.78
2022-07-27T14:33:40.701Z,100305.19
2022-07-27T14:38:44.243Z,100313.81
2022-07-27T14:43:44.892Z,100305.84
2022-07-27T14:54:07.698Z,100313.69
2022-07-27T14:59:08.574Z,100309.72
2022-07-27T15:04:09.163Z,100290.31
2022-07-27T15:09:11.377Z,100292.81
2022-07-27T15:14:12.223Z,100295.03
2022-07-27T15:19:13.042Z,100287.22
2022-07-27T15:24:15.405Z,100270.72
2022-07-27T15:29:16.245Z,100284.75
2022-07-27T15:34:17.070Z,100279.34
2022-07-27T15:39:20.818Z,100275.50
2022-07-27T15:44:22.786Z,100270.91
2022-07-27T15:49:23.880Z,100264.50
2022-07-27T15:54:30.113Z,100281.94
2022-07-27T15:59:33.676Z,100271.88
2022-07-27T16:04:34.839Z,100267.78
2022-07-27T16:09:37.264Z,100266.06
2022-07-27T16:14:37.883Z,100256.31
2022-07-27T16:19:38.566Z,100266.00
2022-07-27T16:24:40.627Z,100260.25
2022-07-27T16:29:41.324Z,100266.66
2022-07-27T16:34:42.041Z,100259.91
2022-07-27T16:39:44.724Z,100256.22
2022-07-27T16:44:45.540Z,100243.66
2022-07-27T16:49:46.309Z,100248.34
2022-07-27T16:54:48.344Z,100257.41
2022-07-27T16:59:49.298Z,100250.56
2022-07-27T17:04:51.126Z,100241.47
2022-07-27T17:09:53.173Z,100244.31
2022-07-27T17:14:53.846Z,100247.13
2022-07-27T17:19:54.558Z,100251.06
2022-07-27T17:24:56.664Z,100247.78
2022-07-27T17:29:57.397Z,100249.50
2022-07-27T17:34:58.101Z,100253.56
2022-07-27T17:40:00.190Z,100261.84
2022-07-27T17:45:00.913Z,100253.59
2022-07-27T17:50:01.614Z,100259.56
2022-07-27T17:55:04.103Z,100257.91
2022-07-27T18:00:06.298Z,100262.84
2022-07-27T18:05:08.765Z,100262.28
2022-07-27T18:10:11.100Z,100259.13
2022-07-27T18:15:31.905Z,100265.25
2022-07-27T18:20:32.738Z,100270.09
2022-07-27T18:25:34.874Z,100277.44
2022-07-27T18:30:35.691Z,100278.00
2022-07-27T18:35:36.348Z,100276.44
2022-07-27T18:40:39.440Z,100277.69
2022-07-27T18:45:41.069Z,100289.59
2022-07-27T18:50:41.740Z,100296.09
2022-07-27T18:55:44.912Z,100302.66
2022-07-27T19:00:45.547Z,100299.72
2022-07-27T19:05:47.091Z,100306.03
2022-07-27T19:10:49.195Z,100314.84
2022-07-27T19:15:50.141Z,100322.13
2022-07-27T19:20:50.837Z,100348.72
2022-07-27T19:25:53.056Z,100355.59
2022-07-27T19:30:54.389Z,100364.66
2022-07-27T19:35:55.610Z,100365.44
2022-07-27T19:40:57.604Z,100370.19
2022-07-27T19:45:58.395Z,100370.47
2022-07-27T19:51:04.772Z,100376.63
2022-07-27T19:56:09.121Z,100377.56
2022-07-27T20:01:11.502Z,100391.28
2022-07-27T20:06:14.132Z,100389.75
2022-07-27T20:11:16.206Z,100392.22
2022-07-27T20:16:17.897Z,100391.94
2022-07-27T20:21:23.020Z,100391.34
2022-07-27T20:26:25.751Z,100394.41
2022-07-27T20:31:26.679Z,100404.13
2022-07-27T20:36:27.423Z,100403.94
2022-07-27T20:41:29.507Z,100402.72
2022-07-27T20:46:30.199Z,100418.16
2022-07-27T20:51:30.991Z,100406.41
2022-07-27T20:56:32.935Z,100400.72
2022-07-27T21:01:33.684Z,100402.00
2022-07-27T21:06:35.249Z,100415.66
2022-07-27T21:11:37.313Z,100420.66
2022-07-27T21:16:38.011Z,100412.94
2022-07-27T21:21:38.766Z,100431.09
2022-07-27T21:26:40.749Z,100432.13
2022-07-27T21:31:46.375Z,100444.81
2022-07-27T21:36:47.808Z,100437.63
2022-07-27T21:41:49.722Z,100432.59
2022-07-27T21:46:52.746Z,100430.94
2022-07-27T21:51:53.360Z,100436.47
2022-07-27T21:56:57.558Z,100440.22
2022-07-27T22:01:58.858Z,100449.94
2022-07-27T22:06:59.475Z,100454.72
2022-07-27T22:12:01.420Z,100459.34
2022-07-27T22:17:03.093Z,100466.50
2022-07-27T22:22:05.271Z,100479.69
2022-07-27T22:27:07.666Z,100486.06
2022-07-27T22:32:10.569Z,100476.84
2022-07-27T22:37:14.876Z,100491.75
2022-07-27T22:42:17.241Z,100499.59
2022-07-27T22:47:18.062Z,100503.94
2022-07-27T22:52:18.815Z,100496.16
2022-07-27T22:57:25.539Z,100500.69
2022-07-27T23:02:26.983Z,100500.31
2022-07-27T23:07:27.610Z,100496.94
2022-07-27T23:12:29.613Z,100501.50
2022-07-27T23:17:31.351Z,100505.91
2022-07-27T23:22:31.967Z,100504.34
2022-07-27T23:27:36.290Z,100500.97
2022-07-27T23:32:37.207Z,100503.69
2022-07-27T23:37:37.908Z,100506.44
2022-07-27T23:42:39.896Z,100501.47
2022-07-27T23:47:40.929Z,100511.84
2022-07-27T23:52:41.742Z,100508.69
2022-07-27T23:57:43.745Z,100503.66
